NCAR-RAP Real-Time Weather Data

Output produced by METARs form (26 May 2022  08:56 UTC)
found at http://weather.rap.ucar.edu/surface/
 
KLAS 260756Z 24006KT 10SM FEW250 28/M04 A2982 RMK AO2 SLP069 T02781044 403670228
KLAS 260656Z 00000KT 10SM FEW250 29/M04 A2983 RMK AO2 SLP072 T02891044
KLAS 260556Z 22004KT 10SM FEW250 30/M05 A2983 RMK AO2 SLP072 T03001050 10367 20300 51012
KLAS 260456Z 19004KT 10SM FEW250 32/M04 A2982 RMK AO2 SLP070 T03171044
KLAS 260356Z 04004KT 10SM FEW250 33/M05 A2981 RMK AO2 SLP066 T03331050
KLAS 260256Z 06009KT 10SM FEW250 34/M06 A2979 RMK AO2 SLP060 T03441056 55005
KLAS 260156Z 09007KT 10SM FEW250 36/M05 A2978 RMK AO2 SLP058 T03611050
KLAS 260056Z 08007KT 10SM FEW250 37/M06 A2979 RMK AO2 SLP059 T03671056
KLAS 252356Z 06003KT 10SM CLR 36/M06 A2981 RMK AO2 SLP066 T03611056 10367 20311 58026
KLAS 252256Z VRB04KT 10SM CLR 36/M06 A2984 RMK AO2 SLP075 T03561056
KLAS 252156Z 12007KT 090V150 10SM CLR 35/M06 A2987 RMK AO2 SLP087 T03501056
KLAS 252056Z 04006KT 10SM CLR 35/M06 A2989 RMK AO2 SLP094 T03501061 58018
KLAS 251956Z 10007KT 10SM CLR 34/M06 A2991 RMK AO2 SLP102 T03391061
KLAS 251856Z 07006KT 10SM FEW003 32/M06 A2993 RMK AO2 SLP110 FU FEW003 T03221061
KLAS 251849Z 13006KT 10SM FEW003 32/M06 A2994 RMK AO2 FU FEW003 T03221061
KLAS 251756Z VRB03KT 10SM CLR 32/M06 A2995 RMK AO2 SLP113 T03171061 10317 20228 50002
KLAS 251656Z 04007KT 10SM FEW005 30/M06 A2995 RMK AO2 SLP115 FU FEW005 T03001056
KLAS 251556Z 06005KT 10SM FEW003 28/M06 A2995 RMK AO2 SLP117 FU FEW003 T02781061
KLAS 251456Z 06004KT 10SM FEW250 27/M07 A2994 RMK AO2 SLP113 T02671072 51019
KLAS 251356Z 00000KT 10SM FEW250 24/M06 A2993 RMK AO2 SLP108 T02441061
KLAS 251256Z 21003KT 10SM FEW250 23/M07 A2991 RMK AO2 SLP103 T02281067
KLAS 251156Z 36005KT 10SM CLR 23/M08 A2988 RMK AO2 SLP093 T02331083 10278 20228 53019
KLAS 251056Z 36008KT 10SM CLR 24/M08 A2986 RMK AO2 SLP085 T02391078
KLAS 250956Z 24004KT 10SM CLR 23/M06 A2983 RMK AO2 SLP076 T02331056
KLAS 250856Z 00000KT 10SM CLR 24/M05 A2982 RMK AO2 SLP072 T02441050 53002
KLAS 250756Z 27005KT 10SM CLR 25/M07 A2982 RMK AO2 SLP072 T02501067 403280211
KLAS 250656Z 00000KT 10SM FEW250 26/M07 A2981 RMK AO2 SLP071 T02611072
KLAS 250556Z 23004KT 10SM FEW250 28/M08 A2981 RMK AO2 SLP071 T02781078 10328 20278 51008
KLAS 250456Z 24004KT 10SM FEW250 29/M07 A2981 RMK AO2 SLP069 T02891067
KLAS 250356Z 13003KT 10SM FEW250 30/M07 A2980 RMK AO2 SLP066 T03001067
KLAS 250256Z VRB03KT 10SM FEW250 31/M07 A2979 RMK AO2 SLP062 T03111072 55006
KLAS 250156Z 17004KT 10SM FEW250 33/M08 A2978 RMK AO2 SLP059 T03281083
KLAS 250056Z 00000KT 10SM FEW250 33/M08 A2978 RMK AO2 SLP060 T03281078
KLAS 242356Z 31005KT 10SM FEW250 32/M08 A2981 RMK AO2 SLP068 T03221083 10328 20278 56024
KLAS 242256Z 00000KT 10SM FEW250 31/M08 A2982 RMK AO2 SLP074 T03111078
KLAS 242156Z 12005KT 10SM FEW250 31/M08 A2985 RMK AO2 SLP085 T03111078
KLAS 242056Z 15005KT 10SM FEW250 31/M08 A2988 RMK AO2 SLP094 T03061078 58017
KLAS 241956Z VRB03KT 10SM FEW250 30/M09 A2990 RMK AO2 SLP102 T03001089
KLAS 241856Z 36004KT 10SM FEW250 29/M09 A2992 RMK AO2 SLP109 T02891089
KLAS 241756Z VRB03KT 10SM FEW250 27/M09 A2993 RMK AO2 SLP114 T02721089 10283 20211 58003
KLAS 241656Z VRB04KT 10SM FEW250 26/M09 A2995 RMK AO2 SLP118 T02611094
KLAS 241556Z 11005KT 10SM CLR 26/M09 A2995 RMK AO2 SLP119 T02561089
KLAS 241456Z 00000KT 10SM CLR 23/M09 A2994 RMK AO2 SLP118 T02331094 51018
KLAS 241356Z 21003KT 10SM FEW250 23/M09 A2994 RMK AO2 SLP114 T02281089
KLAS 241256Z 36006KT 10SM CLR 22/M11 A2991 RMK AO2 SLP107 T02171106
KLAS 241156Z 07011KT 10SM FEW250 22/M11 A2989 RMK AO2 SLP098 T02221106 10272 20217 50013
KLAS 241056Z 03012KT 10SM FEW250 23/M11 A2989 RMK AO2 SLP097 T02281106
KLAS 240956Z 04011KT 10SM FEW250 23/M11 A2987 RMK AO2 SLP092 T02281106